Maua, Brazil
Current Conditions -  °F | °C
As of 3:00 PM on Friday 24 Oct 2014 (Local Time) from SBSP Reporting Station
Few Clouds Few Clouds  
Wind Chill: 81°   Ceiling: Unl
Heat Index: 81°   Visibility: 6mi
Dew Point: 61°   Wind: 16mph
Humidity: 51%   Direction: 170°S
Pressure: 30.03"   Gusts: NA
Location:  23.66°S, 46.46°W
Report Text: SBSP 241700Z 17014KT 9999 FEW050 27/16 Q1017
Loading
Personal Weather Stations






























Interactive Weather Map
Tropical Storm Tracking
New forecast layout! Learn more

10-Day Weather Forecast

Advertisements
Track Severe Weather on mobile